sensor_id;sensor_type;location;lat;lon;timestamp;pressure;altitude;pressure_sealevel;temperature;humidity
32933;BME280;19444;50.518;10.870;2023-04-01T00:02:14;94838.13;;;6.88;100.00
32933;BME280;19444;50.518;10.870;2023-04-01T00:05:11;94835.63;;;6.83;100.00
32933;BME280;19444;50.518;10.870;2023-04-01T00:08:08;94842.84;;;6.82;100.00
32933;BME280;19444;50.518;10.870;2023-04-01T00:11:07;94834.06;;;6.82;100.00
32933;BME280;19444;50.518;10.870;2023-04-01T00:14:04;94838.94;;;6.80;100.00
32933;BME280;19444;50.518;10.870;2023-04-01T00:17:01;94828.63;;;6.78;100.00
32933;BME280;19444;50.518;10.870;2023-04-01T00:19:58;94822.84;;;6.76;100.00
32933;BME280;19444;50.518;10.870;2023-04-01T00:22:55;94817.66;;;6.80;100.00
32933;BME280;19444;50.518;10.870;2023-04-01T00:25:52;94819.88;;;6.78;100.00
32933;BME280;19444;50.518;10.870;2023-04-01T00:28:49;94826.09;;;6.82;100.00
32933;BME280;19444;50.518;10.870;2023-04-01T00:31:46;94827.06;;;6.77;100.00
32933;BME280;19444;50.518;10.870;2023-04-01T00:34:44;94823.81;;;6.72;100.00
32933;BME280;19444;50.518;10.870;2023-04-01T00:37:42;94832.13;;;6.70;100.00
32933;BME280;19444;50.518;10.870;2023-04-01T00:40:45;94823.81;;;6.72;100.00
32933;BME280;19444;50.518;10.870;2023-04-01T00:43:44;94830.75;;;6.64;100.00
32933;BME280;19444;50.518;10.870;2023-04-01T00:46:42;94825.88;;;6.66;100.00
32933;BME280;19444;50.518;10.870;2023-04-01T00:49:42;94826.84;;;6.62;100.00
32933;BME280;19444;50.518;10.870;2023-04-01T00:52:40;94826.81;;;6.70;100.00
32933;BME280;19444;50.518;10.870;2023-04-01T00:55:42;94828.53;;;6.66;100.00
32933;BME280;19444;50.518;10.870;2023-04-01T00:58:47;94831.53;;;6.65;100.00
32933;BME280;19444;50.518;10.870;2023-04-01T01:01:46;94818.72;;;6.58;100.00
32933;BME280;19444;50.518;10.870;2023-04-01T01:04:43;94827.63;;;6.62;100.00
32933;BME280;19444;50.518;10.870;2023-04-01T01:08:05;94826.72;;;6.58;100.00
32933;BME280;19444;50.518;10.870;2023-04-01T01:11:08;94823.00;;;6.50;100.00
32933;BME280;19444;50.518;10.870;2023-04-01T01:31:33;94821.31;;;6.46;100.00
32933;BME280;19444;50.518;10.870;2023-04-01T01:35:27;94814.09;;;6.46;100.00
32933;BME280;19444;50.518;10.870;2023-04-01T01:38:31;94810.88;;;6.41;100.00
32933;BME280;19444;50.518;10.870;2023-04-01T01:41:30;94816.19;;;6.41;100.00
32933;BME280;19444;50.518;10.870;2023-04-01T01:44:29;94807.44;;;6.40;100.00
32933;BME280;19444;50.518;10.870;2023-04-01T01:47:28;94806.44;;;6.45;100.00
32933;BME280;19444;50.518;10.870;2023-04-01T01:50:26;94815.72;;;6.39;100.00
32933;BME280;19444;50.518;10.870;2023-04-01T01:53:23;94812.38;;;6.50;100.00
32933;BME280;19444;50.518;10.870;2023-04-01T01:56:23;94803.78;;;6.45;100.00
32933;BME280;19444;50.518;10.870;2023-04-01T01:59:25;94800.94;;;6.50;100.00
32933;BME280;19444;50.518;10.870;2023-04-01T02:02:25;94807.47;;;6.32;100.00
32933;BME280;19444;50.518;10.870;2023-04-01T02:05:26;94806.94;;;6.38;100.00
32933;BME280;19444;50.518;10.870;2023-04-01T02:08:56;94805.72;;;6.36;100.00
32933;BME280;19444;50.518;10.870;2023-04-01T02:12:07;94801.66;;;6.30;100.00
32933;BME280;19444;50.518;10.870;2023-04-01T02:15:09;94815.25;;;6.37;100.00
32933;BME280;19444;50.518;10.870;2023-04-01T02:18:06;94813.69;;;6.36;100.00
32933;BME280;19444;50.518;10.870;2023-04-01T02:21:05;94806.03;;;6.34;100.00
32933;BME280;19444;50.518;10.870;2023-04-01T02:24:10;94799.00;;;6.30;100.00
32933;BME280;19444;50.518;10.870;2023-04-01T02:27:09;94801.81;;;6.33;100.00
32933;BME280;19444;50.518;10.870;2023-04-01T02:30:07;94804.28;;;6.38;100.00
32933;BME280;19444;50.518;10.870;2023-04-01T02:33:05;94805.59;;;6.32;100.00
32933;BME280;19444;50.518;10.870;2023-04-01T02:36:03;94804.94;;;6.35;100.00
32933;BME280;19444;50.518;10.870;2023-04-01T02:39:00;94807.44;;;6.40;100.00
32933;BME280;19444;50.518;10.870;2023-04-01T02:41:59;94799.75;;;6.39;100.00
32933;BME280;19444;50.518;10.870;2023-04-01T02:44:56;94801.38;;;6.31;100.00
32933;BME280;19444;50.518;10.870;2023-04-01T02:47:53;94804.50;;;6.33;100.00
32933;BME280;19444;50.518;10.870;2023-04-01T02:50:50;94811.31;;;6.43;100.00
32933;BME280;19444;50.518;10.870;2023-04-01T02:53:47;94801.03;;;6.33;100.00
32933;BME280;19444;50.518;10.870;2023-04-01T02:56:44;94797.41;;;6.37;100.00
32933;BME280;19444;50.518;10.870;2023-04-01T02:59:42;94803.28;;;6.51;100.00
32933;BME280;19444;50.518;10.870;2023-04-01T03:02:39;94795.53;;;6.38;100.00
32933;BME280;19444;50.518;10.870;2023-04-01T03:05:36;94804.28;;;6.38;100.00
32933;BME280;19444;50.518;10.870;2023-04-01T03:08:33;94800.47;;;6.48;100.00
32933;BME280;19444;50.518;10.870;2023-04-01T03:11:30;94808.44;;;6.48;100.00
32933;BME280;19444;50.518;10.870;2023-04-01T03:14:27;94808.31;;;6.44;100.00
32933;BME280;19444;50.518;10.870;2023-04-01T03:17:23;94818.47;;;6.51;100.00
32933;BME280;19444;50.518;10.870;2023-04-01T03:20:20;94814.47;;;6.36;100.00
32933;BME280;19444;50.518;10.870;2023-04-01T03:23:17;94811.03;;;6.36;100.00
32933;BME280;19444;50.518;10.870;2023-04-01T03:26:16;94813.53;;;6.41;100.00
32933;BME280;19444;50.518;10.870;2023-04-01T03:29:13;94812.53;;;6.45;100.00
32933;BME280;19444;50.518;10.870;2023-04-01T03:32:12;94806.78;;;6.43;100.00
32933;BME280;19444;50.518;10.870;2023-04-01T03:35:09;94811.50;;;6.38;100.00
32933;BME280;19444;50.518;10.870;2023-04-01T03:38:06;94811.16;;;6.39;100.00
32933;BME280;19444;50.518;10.870;2023-04-01T03:41:04;94818.38;;;6.39;100.00
32933;BME280;19444;50.518;10.870;2023-04-01T03:44:00;94813.38;;;6.37;100.00
32933;BME280;19444;50.518;10.870;2023-04-01T03:46:58;94820.00;;;6.31;100.00
32933;BME280;19444;50.518;10.870;2023-04-01T03:49:54;94814.03;;;6.34;100.00
32933;BME280;19444;50.518;10.870;2023-04-01T03:52:51;94813.41;;;6.28;100.00
32933;BME280;19444;50.518;10.870;2023-04-01T03:55:48;94821.22;;;6.34;100.00
32933;BME280;19444;50.518;10.870;2023-04-01T03:58:45;94815.59;;;6.35;100.00
32933;BME280;19444;50.518;10.870;2023-04-01T04:01:42;94809.69;;;6.21;100.00
32933;BME280;19444;50.518;10.870;2023-04-01T04:04:38;94822.00;;;6.34;100.00
32933;BME280;19444;50.518;10.870;2023-04-01T04:07:37;94808.75;;;6.25;100.00
32933;BME280;19444;50.518;10.870;2023-04-01T04:10:34;94821.41;;;6.28;100.00
32933;BME280;19444;50.518;10.870;2023-04-01T04:13:32;94831.41;;;6.32;100.00
32933;BME280;19444;50.518;10.870;2023-04-01T04:16:29;94812.19;;;6.26;100.00
32933;BME280;19444;50.518;10.870;2023-04-01T04:19:26;94826.91;;;6.23;100.00
32933;BME280;19444;50.518;10.870;2023-04-01T04:22:23;94820.81;;;6.23;100.00
32933;BME280;19444;50.518;10.870;2023-04-01T04:25:19;94817.84;;;6.24;100.00
32933;BME280;19444;50.518;10.870;2023-04-01T04:28:16;94815.16;;;6.24;100.00
32933;BME280;19444;50.518;10.870;2023-04-01T04:31:19;94818.28;;;6.26;100.00
32933;BME280;19444;50.518;10.870;2023-04-01T04:34:17;94823.94;;;6.25;100.00
32933;BME280;19444;50.518;10.870;2023-04-01T04:37:15;94819.38;;;6.25;100.00
32933;BME280;19444;50.518;10.870;2023-04-01T04:40:11;94823.31;;;6.19;100.00
32933;BME280;19444;50.518;10.870;2023-04-01T04:43:15;94828.97;;;6.18;100.00
32933;BME280;19444;50.518;10.870;2023-04-01T04:46:12;94833.50;;;6.17;100.00
32933;BME280;19444;50.518;10.870;2023-04-01T04:49:09;94830.72;;;6.14;100.00
32933;BME280;19444;50.518;10.870;2023-04-01T04:52:06;94827.84;;;6.19;100.00
32933;BME280;19444;50.518;10.870;2023-04-01T04:55:03;94826.16;;;6.14;100.00
32933;BME280;19444;50.518;10.870;2023-04-01T04:58:00;94832.84;;;6.20;100.00
32933;BME280;19444;50.518;10.870;2023-04-01T05:00:57;94830.06;;;6.17;100.00
32933;BME280;19444;50.518;10.870;2023-04-01T05:03:54;94832.28;;;6.15;100.00
32933;BME280;19444;50.518;10.870;2023-04-01T05:06:51;94839.28;;;6.19;100.00
32933;BME280;19444;50.518;10.870;2023-04-01T05:09:48;94841.59;;;6.21;100.00
32933;BME280;19444;50.518;10.870;2023-04-01T05:12:45;94837.91;;;6.13;100.00
32933;BME280;19444;50.518;10.870;2023-04-01T05:15:42;94840.78;;;6.29;100.00
32933;BME280;19444;50.518;10.870;2023-04-01T05:18:39;94838.94;;;6.21;100.00
32933;BME280;19444;50.518;10.870;2023-04-01T05:21:36;94841.81;;;6.16;100.00
32933;BME280;19444;50.518;10.870;2023-04-01T05:24:33;94846.00;;;6.25;100.00
32933;BME280;19444;50.518;10.870;2023-04-01T05:27:30;94844.31;;;6.12;100.00
32933;BME280;19444;50.518;10.870;2023-04-01T05:30:27;94836.50;;;6.16;100.00
32933;BME280;19444;50.518;10.870;2023-04-01T05:33:24;94836.94;;;6.18;100.00
32933;BME280;19444;50.518;10.870;2023-04-01T05:36:21;94833.03;;;6.15;100.00
32933;BME280;19444;50.518;10.870;2023-04-01T05:39:17;94841.94;;;6.19;100.00
32933;BME280;19444;50.518;10.870;2023-04-01T05:42:14;94840.84;;;6.20;100.00
32933;BME280;19444;50.518;10.870;2023-04-01T05:45:12;94829.91;;;6.22;100.00
32933;BME280;19444;50.518;10.870;2023-04-01T05:48:12;94833.13;;;6.27;100.00
32933;BME280;19444;50.518;10.870;2023-04-01T05:51:16;94835.50;;;6.20;100.00
32933;BME280;19444;50.518;10.870;2023-04-01T05:54:12;94836.78;;;6.23;100.00
32933;BME280;19444;50.518;10.870;2023-04-01T05:57:09;94842.22;;;6.26;100.00
32933;BME280;19444;50.518;10.870;2023-04-01T06:00:07;94837.03;;;6.30;100.00
32933;BME280;19444;50.518;10.870;2023-04-01T06:03:04;94841.41;;;6.35;100.00
32933;BME280;19444;50.518;10.870;2023-04-01T06:06:01;94845.78;;;6.31;100.00
32933;BME280;19444;50.518;10.870;2023-04-01T06:09:17;94843.75;;;6.36;100.00
32933;BME280;19444;50.518;10.870;2023-04-01T06:13:06;94849.19;;;6.40;100.00
32933;BME280;19444;50.518;10.870;2023-04-01T06:16:53;94860.72;;;6.52;100.00
32933;BME280;19444;50.518;10.870;2023-04-01T06:20:16;94843.75;;;6.36;100.00
32933;BME280;19444;50.518;10.870;2023-04-01T06:26:55;94856.41;;;6.39;100.00
32933;BME280;19444;50.518;10.870;2023-04-01T06:30:29;94855.91;;;6.46;100.00
32933;BME280;19444;50.518;10.870;2023-04-01T06:40:37;94867.97;;;6.43;100.00
32933;BME280;19444;50.518;10.870;2023-04-01T06:47:16;94873.47;;;6.38;100.00
32933;BME280;19444;50.518;10.870;2023-04-01T06:50:35;94871.91;;;6.37;100.00
32933;BME280;19444;50.518;10.870;2023-04-01T06:56:54;94867.81;;;6.40;100.00
32933;BME280;19444;50.518;10.870;2023-04-01T06:59:56;94866.09;;;6.44;100.00
32933;BME280;19444;50.518;10.870;2023-04-01T07:03:33;94869.41;;;6.41;100.00
32933;BME280;19444;50.518;10.870;2023-04-01T07:09:38;94861.06;;;6.51;100.00
32933;BME280;19444;50.518;10.870;2023-04-01T07:12:55;94866.88;;;6.44;100.00
32933;BME280;19444;50.518;10.870;2023-04-01T07:19:39;94871.53;;;6.47;100.00
32933;BME280;19444;50.518;10.870;2023-04-01T07:22:51;94863.44;;;6.44;100.00
32933;BME280;19444;50.518;10.870;2023-04-01T07:25:55;94860.69;;;6.61;100.00
32933;BME280;19444;50.518;10.870;2023-04-01T07:28:55;94864.78;;;6.59;100.00
32933;BME280;19444;50.518;10.870;2023-04-01T07:35:50;94867.56;;;6.62;100.00
32933;BME280;19444;50.518;10.870;2023-04-01T07:49:27;94870.72;;;6.55;100.00
32933;BME280;19444;50.518;10.870;2023-04-01T08:00:30;94879.84;;;6.75;100.00
32933;BME280;19444;50.518;10.870;2023-04-01T08:04:13;94873.16;;;6.69;100.00
32933;BME280;19444;50.518;10.870;2023-04-01T08:07:45;94888.66;;;6.67;100.00
32933;BME280;19444;50.518;10.870;2023-04-01T08:11:08;94886.72;;;6.76;100.00
32933;BME280;19444;50.518;10.870;2023-04-01T08:14:24;94878.28;;;6.74;100.00
32933;BME280;19444;50.518;10.870;2023-04-01T08:23:44;94892.31;;;6.83;100.00
32933;BME280;19444;50.518;10.870;2023-04-01T08:26:46;94896.88;;;6.83;100.00
32933;BME280;19444;50.518;10.870;2023-04-01T08:30:26;94893.31;;;6.79;100.00
32933;BME280;19444;50.518;10.870;2023-04-01T08:33:30;94891.47;;;6.71;100.00
32933;BME280;19444;50.518;10.870;2023-04-01T08:36:38;94894.09;;;6.79;100.00
32933;BME280;19444;50.518;10.870;2023-04-01T08:39:51;94892.38;;;6.75;100.00
32933;BME280;19444;50.518;10.870;2023-04-01T08:47:27;94902.81;;;6.89;100.00
32933;BME280;19444;50.518;10.870;2023-04-01T08:57:52;94901.56;;;6.86;100.00
32933;BME280;19444;50.518;10.870;2023-04-01T09:04:22;94889.00;;;6.95;100.00
32933;BME280;19444;50.518;10.870;2023-04-01T09:07:52;94894.38;;;6.87;100.00
32933;BME280;19444;50.518;10.870;2023-04-01T09:15:24;94897.50;;;7.09;100.00
32933;BME280;19444;50.518;10.870;2023-04-01T09:25:26;94892.66;;;6.82;100.00
32933;BME280;19444;50.518;10.870;2023-04-01T09:39:40;94899.44;;;7.00;100.00
32933;BME280;19444;50.518;10.870;2023-04-01T09:42:55;94902.88;;;7.01;100.00
32933;BME280;19444;50.518;10.870;2023-04-01T09:56:47;94895.59;;;7.10;100.00
32933;BME280;19444;50.518;10.870;2023-04-01T10:07:32;94904.19;;;7.16;100.00
32933;BME280;19444;50.518;10.870;2023-04-01T10:11:20;94910.16;;;7.12;100.00
32933;BME280;19444;50.518;10.870;2023-04-01T10:18:05;94907.88;;;7.02;100.00
32933;BME280;19444;50.518;10.870;2023-04-01T10:21:48;94907.81;;;7.11;100.00
32933;BME280;19444;50.518;10.870;2023-04-01T10:28:57;94909.19;;;7.17;100.00
32933;BME280;19444;50.518;10.870;2023-04-01T10:35:51;94912.19;;;7.16;100.00
32933;BME280;19444;50.518;10.870;2023-04-01T10:46:45;94909.84;;;7.35;100.00
32933;BME280;19444;50.518;10.870;2023-04-01T11:04:55;94906.69;;;7.41;100.00
32933;BME280;19444;50.518;10.870;2023-04-01T11:08:17;94906.69;;;7.41;100.00
32933;BME280;19444;50.518;10.870;2023-04-01T11:12:04;94903.53;;;7.60;100.00
32933;BME280;19444;50.518;10.870;2023-04-01T11:15:18;94908.31;;;7.67;100.00
32933;BME280;19444;50.518;10.870;2023-04-01T11:29:03;94916.06;;;7.39;100.00
32933;BME280;19444;50.518;10.870;2023-04-01T11:36:15;94915.50;;;7.33;100.00
32933;BME280;19444;50.518;10.870;2023-04-01T11:39:33;94914.72;;;7.33;100.00
32933;BME280;19444;50.518;10.870;2023-04-01T11:46:12;94912.75;;;7.63;100.00
32933;BME280;19444;50.518;10.870;2023-04-01T11:49:47;94913.94;;;7.53;100.00
32933;BME280;19444;50.518;10.870;2023-04-01T11:56:33;94924.88;;;7.60;100.00
32933;BME280;19444;50.518;10.870;2023-04-01T12:03:41;94920.34;;;7.73;100.00
32933;BME280;19444;50.518;10.870;2023-04-01T12:13:37;94925.28;;;7.83;100.00
32933;BME280;19444;50.518;10.870;2023-04-01T12:20:38;94928.38;;;7.85;100.00
32933;BME280;19444;50.518;10.870;2023-04-01T12:24:20;94938.50;;;7.80;100.00
32933;BME280;19444;50.518;10.870;2023-04-01T12:27:43;94934.38;;;7.82;100.00
32933;BME280;19444;50.518;10.870;2023-04-01T12:34:49;94936.91;;;7.99;100.00
32933;BME280;19444;50.518;10.870;2023-04-01T12:48:59;94937.09;;;8.27;100.00
32933;BME280;19444;50.518;10.870;2023-04-01T12:52:14;94936.97;;;8.24;100.00
32933;BME280;19444;50.518;10.870;2023-04-01T12:55:45;94929.78;;;8.37;100.00
32933;BME280;19444;50.518;10.870;2023-04-01T13:02:50;94931.94;;;8.55;100.00
32933;BME280;19444;50.518;10.870;2023-04-01T13:13:00;94939.50;;;8.53;100.00
32933;BME280;19444;50.518;10.870;2023-04-01T13:16:14;94937.72;;;8.82;100.00
32933;BME280;19444;50.518;10.870;2023-04-01T13:19:25;94940.50;;;8.86;100.00
32933;BME280;19444;50.518;10.870;2023-04-01T13:23:21;94937.25;;;8.43;100.00
32933;BME280;19444;50.518;10.870;2023-04-01T13:26:18;94941.44;;;8.32;100.00
32933;BME280;19444;50.518;10.870;2023-04-01T13:29:23;94953.03;;;8.36;100.00
32933;BME280;19444;50.518;10.870;2023-04-01T13:35:49;94963.41;;;8.17;100.00
32933;BME280;19444;50.518;10.870;2023-04-01T13:39:09;94953.97;;;8.52;100.00
32933;BME280;19444;50.518;10.870;2023-04-01T13:42:36;94958.72;;;8.35;100.00
32933;BME280;19444;50.518;10.870;2023-04-01T13:53:04;94954.84;;;8.44;100.00
32933;BME280;19444;50.518;10.870;2023-04-01T13:56:44;94954.28;;;8.51;100.00
32933;BME280;19444;50.518;10.870;2023-04-01T14:10:41;94968.28;;;8.36;100.00
32933;BME280;19444;50.518;10.870;2023-04-01T14:14:05;94969.16;;;8.40;100.00
32933;BME280;19444;50.518;10.870;2023-04-01T14:24:51;94981.63;;;8.36;100.00
32933;BME280;19444;50.518;10.870;2023-04-01T14:32:27;94980.84;;;8.35;100.00
32933;BME280;19444;50.518;10.870;2023-04-01T14:35:31;94985.56;;;8.50;100.00
32933;BME280;19444;50.518;10.870;2023-04-01T14:38:47;94986.00;;;8.52;100.00
32933;BME280;19444;50.518;10.870;2023-04-01T14:48:57;94988.31;;;8.54;100.00
32933;BME280;19444;50.518;10.870;2023-04-01T14:51:56;94993.66;;;8.42;100.00
32933;BME280;19444;50.518;10.870;2023-04-01T14:55:02;94996.84;;;8.35;100.00
32933;BME280;19444;50.518;10.870;2023-04-01T14:58:13;94995.22;;;8.55;100.00
32933;BME280;19444;50.518;10.870;2023-04-01T15:05:16;95003.75;;;8.36;100.00
32933;BME280;19444;50.518;10.870;2023-04-01T15:08:51;95002.81;;;8.32;100.00
32933;BME280;19444;50.518;10.870;2023-04-01T15:15:03;95006.34;;;8.45;100.00
32933;BME280;19444;50.518;10.870;2023-04-01T15:22:18;95017.00;;;8.45;100.00
32933;BME280;19444;50.518;10.870;2023-04-01T15:25:49;95013.69;;;8.27;100.00
32933;BME280;19444;50.518;10.870;2023-04-01T15:29:01;95017.16;;;8.27;100.00
32933;BME280;19444;50.518;10.870;2023-04-01T15:32:19;95022.81;;;8.26;100.00
32933;BME280;19444;50.518;10.870;2023-04-01T15:35:39;95021.59;;;8.23;100.00
32933;BME280;19444;50.518;10.870;2023-04-01T15:39:28;95026.59;;;8.25;100.00
32933;BME280;19444;50.518;10.870;2023-04-01T15:43:24;95027.06;;;8.06;100.00
32933;BME280;19444;50.518;10.870;2023-04-01T15:46:43;95028.63;;;8.07;100.00
32933;BME280;19444;50.518;10.870;2023-04-01T15:49:49;95032.81;;;7.96;100.00
32933;BME280;19444;50.518;10.870;2023-04-01T16:00:27;95043.88;;;8.07;100.00
32933;BME280;19444;50.518;10.870;2023-04-01T16:03:51;95041.19;;;8.07;100.00
32933;BME280;19444;50.518;10.870;2023-04-01T16:10:38;95055.16;;;8.24;100.00
32933;BME280;19444;50.518;10.870;2023-04-01T16:21:11;95055.72;;;7.97;100.00
32933;BME280;19444;50.518;10.870;2023-04-01T16:27:35;95059.00;;;7.94;100.00
32933;BME280;19444;50.518;10.870;2023-04-01T16:30:55;95062.72;;;8.02;100.00
32933;BME280;19444;50.518;10.870;2023-04-01T16:37:20;95066.94;;;7.82;100.00
32933;BME280;19444;50.518;10.870;2023-04-01T16:41:07;95074.06;;;7.78;100.00
32933;BME280;19444;50.518;10.870;2023-04-01T16:44:16;95068.00;;;7.68;100.00
32933;BME280;19444;50.518;10.870;2023-04-01T16:47:20;95084.13;;;7.72;100.00
32933;BME280;19444;50.518;10.870;2023-04-01T16:50:23;95083.34;;;7.72;100.00
32933;BME280;19444;50.518;10.870;2023-04-01T16:54:02;95086.28;;;7.79;100.00
32933;BME280;19444;50.518;10.870;2023-04-01T17:00:48;95094.03;;;7.63;100.00
32933;BME280;19444;50.518;10.870;2023-04-01T17:03:53;95096.22;;;7.69;100.00
32933;BME280;19444;50.518;10.870;2023-04-01T17:13:57;95110.03;;;7.63;100.00
32933;BME280;19444;50.518;10.870;2023-04-01T17:20:57;95117.84;;;7.68;100.00
32933;BME280;19444;50.518;10.870;2023-04-01T17:48:01;95144.25;;;7.61;100.00
32933;BME280;19444;50.518;10.870;2023-04-01T17:51:43;95148.84;;;7.52;100.00
32933;BME280;19444;50.518;10.870;2023-04-01T17:55:04;95157.75;;;7.56;100.00
32933;BME280;19444;50.518;10.870;2023-04-01T17:58:19;95154.38;;;7.67;100.00
32933;BME280;19444;50.518;10.870;2023-04-01T18:01:34;95159.03;;;7.50;100.00
32933;BME280;19444;50.518;10.870;2023-04-01T18:08:33;95166.72;;;7.51;100.00
32933;BME280;19444;50.518;10.870;2023-04-01T18:12:07;95171.72;;;7.53;100.00
32933;BME280;19444;50.518;10.870;2023-04-01T18:15:31;95182.97;;;7.58;100.00
32933;BME280;19444;50.518;10.870;2023-04-01T18:19:17;95175.47;;;7.60;100.00
32933;BME280;19444;50.518;10.870;2023-04-01T18:22:28;95185.97;;;7.57;100.00
32933;BME280;19444;50.518;10.870;2023-04-01T18:25:44;95189.06;;;7.67;100.00
32933;BME280;19444;50.518;10.870;2023-04-01T18:28:54;95182.66;;;7.68;100.00
32933;BME280;19444;50.518;10.870;2023-04-01T18:32:07;95188.75;;;7.69;100.00
32933;BME280;19444;50.518;10.870;2023-04-01T18:35:47;95198.94;;;7.67;100.00
32933;BME280;19444;50.518;10.870;2023-04-01T18:39:00;95195.50;;;7.66;100.00
32933;BME280;19444;50.518;10.870;2023-04-01T18:46:05;95217.66;;;7.50;100.00
32933;BME280;19444;50.518;10.870;2023-04-01T18:49:29;95213.44;;;7.49;100.00
32933;BME280;19444;50.518;10.870;2023-04-01T18:52:40;95222.19;;;7.58;100.00
32933;BME280;19444;50.518;10.870;2023-04-01T18:55:46;95221.28;;;7.54;100.00
32933;BME280;19444;50.518;10.870;2023-04-01T18:59:06;95228.50;;;7.45;100.00
32933;BME280;19444;50.518;10.870;2023-04-01T19:02:29;95231.19;;;7.45;100.00
32933;BME280;19444;50.518;10.870;2023-04-01T19:05:40;95239.16;;;7.53;100.00
32933;BME280;19444;50.518;10.870;2023-04-01T19:08:40;95241.50;;;7.55;100.00
32933;BME280;19444;50.518;10.870;2023-04-01T19:12:12;95248.56;;;7.51;100.00
32933;BME280;19444;50.518;10.870;2023-04-01T19:15:39;95248.25;;;7.52;100.00
32933;BME280;19444;50.518;10.870;2023-04-01T19:19:12;95250.28;;;7.47;100.00
32933;BME280;19444;50.518;10.870;2023-04-01T19:22:49;95257.97;;;7.48;100.00
32933;BME280;19444;50.518;10.870;2023-04-01T19:25:54;95252.19;;;7.46;100.00
32933;BME280;19444;50.518;10.870;2023-04-01T19:29:26;95255.16;;;7.45;100.00
32933;BME280;19444;50.518;10.870;2023-04-01T19:32:49;95274.16;;;7.43;100.00
32933;BME280;19444;50.518;10.870;2023-04-01T19:39:42;95273.38;;;7.43;100.00
32933;BME280;19444;50.518;10.870;2023-04-01T19:46:18;95277.91;;;7.51;100.00
32933;BME280;19444;50.518;10.870;2023-04-01T19:52:42;95285.13;;;7.50;100.00
32933;BME280;19444;50.518;10.870;2023-04-01T19:55:48;95280.06;;;7.49;100.00
32933;BME280;19444;50.518;10.870;2023-04-01T19:59:11;95291.22;;;7.51;100.00
32933;BME280;19444;50.518;10.870;2023-04-01T20:02:39;95292.16;;;7.46;100.00
32933;BME280;19444;50.518;10.870;2023-04-01T20:05:55;95299.06;;;7.47;100.00
32933;BME280;19444;50.518;10.870;2023-04-01T20:13:19;95311.13;;;7.45;100.00
32933;BME280;19444;50.518;10.870;2023-04-01T20:16:18;95315.53;;;7.40;100.00
32933;BME280;19444;50.518;10.870;2023-04-01T20:26:24;95324.63;;;7.39;100.00
32933;BME280;19444;50.518;10.870;2023-04-01T20:29:40;95330.72;;;7.40;100.00
32933;BME280;19444;50.518;10.870;2023-04-01T20:33:14;95334.34;;;7.27;100.00
32933;BME280;19444;50.518;10.870;2023-04-01T20:36:31;95341.56;;;7.35;100.00
32933;BME280;19444;50.518;10.870;2023-04-01T20:43:23;95342.50;;;7.39;100.00
32933;BME280;19444;50.518;10.870;2023-04-01T20:47:08;95347.53;;;7.32;100.00
32933;BME280;19444;50.518;10.870;2023-04-01T20:50:29;95350.81;;;7.29;100.00
32933;BME280;19444;50.518;10.870;2023-04-01T20:54:17;95353.94;;;7.31;100.00
32933;BME280;19444;50.518;10.870;2023-04-01T20:58:01;95351.91;;;7.28;100.00
32933;BME280;19444;50.518;10.870;2023-04-01T21:01:20;95358.97;;;7.24;100.00
32933;BME280;19444;50.518;10.870;2023-04-01T21:04:36;95360.69;;;7.28;100.00
32933;BME280;19444;50.518;10.870;2023-04-01T21:07:45;95367.75;;;7.24;100.00
32933;BME280;19444;50.518;10.870;2023-04-01T21:10:56;95375.09;;;7.27;100.00
32933;BME280;19444;50.518;10.870;2023-04-01T21:14:42;95385.13;;;7.13;100.00
32933;BME280;19444;50.518;10.870;2023-04-01T21:24:52;95390.16;;;7.06;100.00
32933;BME280;19444;50.518;10.870;2023-04-01T21:34:55;95397.66;;;7.04;100.00
32933;BME280;19444;50.518;10.870;2023-04-01T21:56:11;95421.63;;;7.04;100.00
32933;BME280;19444;50.518;10.870;2023-04-01T22:06:53;95436.50;;;6.96;100.00
32933;BME280;19444;50.518;10.870;2023-04-01T22:10:15;95441.34;;;6.94;100.00
32933;BME280;19444;50.518;10.870;2023-04-01T22:13:35;95449.19;;;6.91;100.00
32933;BME280;19444;50.518;10.870;2023-04-01T22:24:05;95456.38;;;6.90;100.00
32933;BME280;19444;50.518;10.870;2023-04-01T22:30:44;95463.75;;;6.93;100.00
32933;BME280;19444;50.518;10.870;2023-04-01T22:34:00;95460.94;;;6.90;100.00
32933;BME280;19444;50.518;10.870;2023-04-01T22:37:13;95462.97;;;6.93;100.00
32933;BME280;19444;50.518;10.870;2023-04-01T22:40:41;95477.25;;;6.97;100.00
32933;BME280;19444;50.518;10.870;2023-04-01T22:43:42;95471.59;;;6.90;100.00
32933;BME280;19444;50.518;10.870;2023-04-01T22:47:14;95479.56;;;6.90;100.00
32933;BME280;19444;50.518;10.870;2023-04-01T22:50:37;95478.78;;;6.89;100.00
32933;BME280;19444;50.518;10.870;2023-04-01T22:54:07;95483.97;;;6.94;100.00
32933;BME280;19444;50.518;10.870;2023-04-01T23:00:50;95487.91;;;6.97;100.00
32933;BME280;19444;50.518;10.870;2023-04-01T23:03:51;95485.06;;;6.93;100.00
32933;BME280;19444;50.518;10.870;2023-04-01T23:06:56;95484.91;;;6.90;100.00
32933;BME280;19444;50.518;10.870;2023-04-01T23:09:56;95491.00;;;6.90;100.00
32933;BME280;19444;50.518;10.870;2023-04-01T23:12:59;95493.22;;;6.97;100.00
32933;BME280;19444;50.518;10.870;2023-04-01T23:15:57;95494.94;;;6.93;100.00
32933;BME280;19444;50.518;10.870;2023-04-01T23:19:18;95501.22;;;6.97;100.00
32933;BME280;19444;50.518;10.870;2023-04-01T23:22:31;95500.72;;;6.95;100.00
32933;BME280;19444;50.518;10.870;2023-04-01T23:26:03;95510.31;;;6.96;100.00
32933;BME280;19444;50.518;10.870;2023-04-01T23:29:02;95520.00;;;6.92;100.00
32933;BME280;19444;50.518;10.870;2023-04-01T23:32:01;95519.22;;;6.91;100.00
32933;BME280;19444;50.518;10.870;2023-04-01T23:35:00;95526.56;;;6.94;100.00
32933;BME280;19444;50.518;10.870;2023-04-01T23:37:57;95527.53;;;6.98;100.00